Last 24 Hours

Squaw-Belmont 8000'

Hourly Data | America/Los_Angeles
as of 5/30/20 9:08 PM PDT
Date & Time Temp (°F) RH (%) Dew Pt (°F) Wet Bulb (°F) Wind Dir (°) Wind Spd (mph) Wind Gust (mph) WindChill (°F) Latest Rain (In) New Snow (in) SnowDepth (in) Daily Min Temp (°F) Daily Max Temp (°F) Daily Rain (In)
5/30/20 - 2100 35.9 100 35.9 35.9 SW | 233 11.0 29.3 29.2 0.02 0.0 33.3 35.9 53.3 0.13
5/30/20 - 2000 36.2 99 35.9 36.0 SW | 231 11.6 23.5 28.8 0.00 0.0 33.0 35.9 53.3 0.11
5/30/20 - 1900 36.7 87 33.2 35.0 SW | 231 14.5 31.5 28.3 0.00 0.0 33.1 35.9 53.3 0.11
5/30/20 - 1800 36.9 84 32.6 34.8 SW | 231 12.8 32.1 29.1 0.00 0.0 33.1 35.9 53.3 0.11
5/30/20 - 1700 36.3 94 34.8 35.6 WSW | 237 7.0 17.7 31.9 0.01 0.0 32.9 35.9 53.3 0.11
5/30/20 - 1600 36.4 94 34.9 35.6 N | 0 6.9 16.0 33.1 0.03 0.0 33.3 36.4 53.3 0.10
5/30/20 - 1500 40.2 86 36.5 38.3 SW | 216 8.3 21.1 35.6 0.02 0.0 33.2 36.6 53.3 0.07
5/30/20 - 1400 40.4 84 35.9 38.2 SW | 225 7.5 23.6 36.4 0.00 0.0 33.4 36.6 53.3 0.05
5/30/20 - 1300 40.7 80 35.1 37.9 SSW | 210 10.4 22.6 37.4 0.00 0.0 33.2 36.6 53.3 0.05
5/30/20 - 1200 40.1 88 36.7 38.4 SSW | 204 14.8 26.2 33.7 0.00 0.0 33.7 36.6 53.3 0.05
5/30/20 - 1100 40.7 90 38.0 39.3 SSW | 204 11.8 26.4 32.8 0.00 0.0 34.2 36.6 53.3 0.05
5/30/20 - 1000 39.0 100 39.0 39.0 SW | 227 10.3 21.5 31.3 0.00 0.0 34.4 36.6 53.3 0.05
5/30/20 - 0900 36.8 100 36.8 36.8 SW | 231 15.5 26.3 27.7 0.01 0.0 34.7 36.6 53.3 0.05
5/30/20 - 0800 37.1 100 37.1 37.1 SW | 233 18.0 26.8 28.8 0.02 0.0 34.8 36.8 53.3 0.04
5/30/20 - 0700 40.5 100 40.5 40.5 SW | 227 17.0 27.8 33.5 0.01 0.0 34.9 40.5 53.3 0.02
5/30/20 - 0600 43.8 100 43.8 43.8 SW | 230 10.7 19.8 39.2 0.01 0.0 34.9 43.8 53.3 0.01
5/30/20 - 0500 45.0 100 45.0 45.0 SW | 233 11.8 18.4 39.9 0.00 0.0 35.0 45.0 53.3 0.00
5/30/20 - 0400 45.9 100 45.9 45.9 WSW | 243 9.9 17.3 42.9 0.00 0.0 35.3 45.9 53.3 0.00
5/30/20 - 0300 48.4 92 46.3 47.2 WSW | 243 7.9 15.0 45.3 0.00 0.0 35.3 48.3 53.3 0.00
5/30/20 - 0200 49.4 95 48.0 48.5 WSW | 238 8.2 15.3 46.6 0.00 0.0 35.2 49.4 53.3 0.00
5/30/20 - 0100 49.9 95 48.5 49.1 WSW | 239 10.2 18.3 47.3 0.00 0.0 35.2 49.9 53.3 0.00
5/30/20 - 0000 53.2 57 38.4 45.1 WSW | 249 6.7 13.7 54.5 0.00 0.0 35.3 52.0 69.8 0.04
5/29/20 - 2300 54.1 53 37.5 45.1 W | 259 2.1 7.6 54.2 0.00 0.0 35.2 52.0 69.8 0.04
5/29/20 - 2200 53.5 57 38.8 45.4 W | 273 6.7 17.8 54.0 0.01 0.0 35.1 52.0 69.8 0.04
5/29/20 - 2100 53.7 62 41.2 46.6 NW | 305 5.0 9.9 55.5 0.01 0.0 35.2 52.0 69.8 0.03
Max 54.1 100 48.5 49.1 - 18.0 32.1 55.5 0.03 0.0 35.3 52.0 69.8 0.13
Avg 42.8 88 39.0 40.8 - 10.3 21.0 38.3 0.01 0.0 34.3 - - -
Min 35.9 53 32.6 34.8 - 2.1 7.6 27.7 0.00 0.0 32.9 35.9 53.3 0.00
Total - - - - - - - - 0.15 - - - - -